Time;durP1;ratioP1;P1;durP2;ratioP2;P2;SDS_P1;SDS_P2;PMS_P1;PMS_P2;Temp;Humidity;BMP_temperature;BMP_pressure;BME280_temperature;BME280_humidity;BME280_pressure;Samples;Min_cycle;Max_cycle;Signal;HPM_P1;HPM_P2
2021/08/25 00:01:40;;;;;;;7.23;6.33;;;13.80;99.90;;;;;;5073394;28;20189;-63
2021/08/25 00:04:06;;;;;;;10.10;7.00;;;13.80;99.90;;;;;;5076368;28;20538;-63
2021/08/25 00:06:31;;;;;;;9.63;6.03;;;13.70;99.90;;;;;;5076114;28;20305;-64
2021/08/25 00:08:58;;;;;;;5.77;5.23;;;13.70;99.90;;;;;;5075723;28;20482;-63
2021/08/25 00:11:24;;;;;;;10.47;5.93;;;13.60;99.90;;;;;;5076285;28;20167;-63
2021/08/25 00:13:50;;;;;;;6.67;5.73;;;13.70;99.90;;;;;;5075679;28;20447;-64
2021/08/25 00:16:16;;;;;;;7.00;6.13;;;13.60;99.90;;;;;;5075976;28;20975;-63
2021/08/25 00:18:42;;;;;;;7.30;5.83;;;13.50;99.90;;;;;;5075647;28;20440;-64
2021/08/25 00:21:08;;;;;;;7.40;6.23;;;13.50;99.90;;;;;;5076110;28;20796;-63
2021/08/25 00:23:33;;;;;;;11.63;6.20;;;13.40;99.90;;;;;;5071827;28;20181;-63
2021/08/25 00:25:59;;;;;;;7.90;7.10;;;13.40;99.90;;;;;;5054554;28;20259;-63
2021/08/25 00:28:25;;;;;;;6.63;5.93;;;13.30;99.90;;;;;;5064272;28;20495;-64
2021/08/25 00:30:51;;;;;;;7.47;5.70;;;13.30;99.90;;;;;;5075726;28;20193;-63
2021/08/25 00:33:17;;;;;;;7.97;6.20;;;13.30;99.90;;;;;;5075482;28;20175;-64
2021/08/25 00:35:42;;;;;;;7.63;6.43;;;13.20;99.90;;;;;;5075825;28;20404;-63
2021/08/25 00:38:08;;;;;;;9.57;7.37;;;13.20;99.90;;;;;;5075176;28;20212;-63
2021/08/25 00:40:34;;;;;;;8.07;6.10;;;13.20;99.90;;;;;;5074420;28;20175;-64
2021/08/25 00:43:07;;;;;;;7.63;5.93;;;13.20;99.90;;;;;;5075740;28;20405;-62
2021/08/25 00:45:44;;;;;;;8.50;6.17;;;13.20;99.90;;;;;;5075450;28;20533;-62
2021/08/25 00:48:14;;;;;;;6.37;5.40;;;13.20;99.90;;;;;;5064545;28;20420;-63
2021/08/25 00:50:39;;;;;;;9.60;6.50;;;13.20;99.90;;;;;;5075510;28;20910;-62
2021/08/25 00:53:06;;;;;;;7.47;5.70;;;13.20;99.90;;;;;;5075389;28;20416;-62
2021/08/25 00:55:40;;;;;;;6.43;5.87;;;13.20;99.90;;;;;;5075580;28;20171;-62
2021/08/25 00:58:09;;;;;;;6.17;5.57;;;13.10;99.90;;;;;;5072732;28;20417;-63
2021/08/25 01:00:45;;;;;;;7.77;6.17;;;13.10;99.90;;;;;;5075194;28;20417;-63
2021/08/25 01:03:18;;;;;;;7.07;5.40;;;13.10;99.90;;;;;;5075153;28;20839;-63
2021/08/25 01:05:45;;;;;;;8.60;6.03;;;13.00;99.90;;;;;;5067109;28;20456;-62
2021/08/25 01:08:12;;;;;;;6.60;5.60;;;13.00;99.90;;;;;;5055090;28;20423;-62
2021/08/25 01:10:38;;;;;;;6.80;5.60;;;13.00;99.90;;;;;;5055043;28;20413;-63
2021/08/25 01:13:07;;;;;;;6.83;5.83;;;12.90;99.90;;;;;;5063907;28;20174;-62
2021/08/25 01:15:35;;;;;;;7.37;5.87;;;12.80;99.90;;;;;;5075139;28;20907;-62
2021/08/25 01:18:06;;;;;;;8.30;5.53;;;12.80;99.90;;;;;;5067060;28;20385;-63
2021/08/25 01:20:33;;;;;;;6.75;5.28;;;12.70;99.90;;;;;;5054755;28;20747;-61
2021/08/25 01:22:59;;;;;;;8.40;5.70;;;12.60;99.90;;;;;;5054935;28;20182;-62
2021/08/25 01:25:26;;;;;;;6.57;5.65;;;12.60;99.90;;;;;;5055824;28;20233;-63
2021/08/25 01:27:55;;;;;;;7.68;6.32;;;12.50;99.90;;;;;;5072872;28;20182;-61
2021/08/25 01:30:25;;;;;;;7.40;5.90;;;12.50;99.90;;;;;;5074831;28;20197;-63
2021/08/25 01:32:51;;;;;;;6.93;6.22;;;12.50;99.90;;;;;;5074640;28;20180;-63
2021/08/25 01:35:16;;;;;;;7.10;6.00;;;12.50;99.90;;;;;;5074548;28;20185;-63
2021/08/25 01:37:42;;;;;;;8.03;7.10;;;12.40;99.90;;;;;;5074122;28;20173;-63
2021/08/25 01:40:09;;;;;;;13.05;6.10;;;12.40;99.90;;;;;;5068821;28;20198;-64
2021/08/25 01:42:34;;;;;;;6.22;5.60;;;12.40;99.90;;;;;;5055429;28;20193;-63
2021/08/25 01:45:00;;;;;;;10.67;6.27;;;12.30;99.90;;;;;;5054244;28;20201;-63
2021/08/25 01:47:26;;;;;;;7.57;6.70;;;12.30;99.90;;;;;;5053855;28;20166;-64
2021/08/25 01:49:52;;;;;;;6.32;5.38;;;12.20;99.90;;;;;;5054238;28;20189;-62
2021/08/25 01:52:19;;;;;;;6.90;5.22;;;12.10;99.90;;;;;;5054237;28;20173;-61
2021/08/25 01:54:46;;;;;;;8.25;6.22;;;12.00;99.90;;;;;;5054943;28;20174;-63
2021/08/25 01:57:11;;;;;;;9.70;7.70;;;12.00;99.90;;;;;;5073362;28;20176;-62
2021/08/25 01:59:38;;;;;;;9.70;7.60;;;12.00;99.90;;;;;;5073899;28;20668;-62
2021/08/25 02:02:04;;;;;;;7.97;7.13;;;11.90;99.90;;;;;;5072292;28;20192;-63
2021/08/25 02:04:30;;;;;;;6.85;5.00;;;11.90;99.90;;;;;;5072721;28;20212;-63
2021/08/25 02:06:55;;;;;;;6.73;5.90;;;11.90;99.90;;;;;;5073593;28;20169;-62
2021/08/25 02:09:21;;;;;;;9.47;6.60;;;11.90;99.90;;;;;;5070325;28;20528;-64
2021/08/25 02:11:47;;;;;;;8.30;6.72;;;11.90;99.90;;;;;;5060068;28;20551;-63
2021/08/25 02:14:13;;;;;;;8.27;5.88;;;12.00;99.90;;;;;;5073796;28;20570;-63
2021/08/25 02:16:39;;;;;;;7.47;6.17;;;11.90;99.90;;;;;;5073509;28;20252;-62
2021/08/25 02:19:05;;;;;;;10.02;7.18;;;11.90;99.90;;;;;;5073692;28;20196;-63
2021/08/25 02:21:31;;;;;;;8.40;6.13;;;11.90;99.90;;;;;;5073827;28;20173;-63
2021/08/25 02:23:57;;;;;;;7.47;5.80;;;11.90;99.90;;;;;;5073490;28;20840;-62
2021/08/25 02:26:22;;;;;;;8.77;6.10;;;11.90;99.90;;;;;;5072289;28;20176;-63
2021/08/25 02:28:51;;;;;;;7.60;6.80;;;11.90;99.90;;;;;;5073191;28;20277;-63
2021/08/25 02:31:17;;;;;;;7.40;5.88;;;11.90;99.90;;;;;;5073702;28;20259;-63
2021/08/25 02:33:43;;;;;;;6.70;6.00;;;11.90;99.90;;;;;;5073621;28;20199;-63
2021/08/25 02:36:11;;;;;;;6.63;5.80;;;11.90;99.90;;;;;;5073682;28;20464;-63
2021/08/25 02:38:38;;;;;;;7.40;6.68;;;11.90;99.90;;;;;;5071633;28;20480;-63
2021/08/25 02:41:05;;;;;;;6.38;5.63;;;11.90;99.90;;;;;;5060468;28;20561;-63
2021/08/25 02:43:31;;;;;;;7.30;6.50;;;11.80;99.90;;;;;;5073200;28;20717;-63
2021/08/25 02:45:56;;;;;;;6.47;5.87;;;11.80;99.90;;;;;;5072165;28;20260;-62
2021/08/25 02:48:22;;;;;;;6.13;5.53;;;11.80;99.90;;;;;;5072995;28;20816;-62
2021/08/25 02:50:48;;;;;;;5.40;4.83;;;11.80;99.90;;;;;;5073504;28;20582;-63
2021/08/25 02:53:16;;;;;;;8.37;6.60;;;11.80;99.90;;;;;;5054591;28;20227;-63
2021/08/25 02:55:42;;;;;;;6.95;6.28;;;11.80;99.90;;;;;;5053449;28;20628;-62
2021/08/25 02:58:08;;;;;;;7.13;6.43;;;11.80;99.90;;;;;;5052745;28;20208;-63
2021/08/25 03:00:34;;;;;;;5.30;4.82;;;11.80;99.90;;;;;;5053280;28;20180;-63
2021/08/25 03:02:59;;;;;;;6.53;5.80;;;11.80;99.90;;;;;;5060249;28;20180;-63
2021/08/25 03:05:25;;;;;;;8.10;6.60;;;11.70;99.90;;;;;;5073037;28;20288;-63
2021/08/25 03:07:50;;;;;;;6.33;5.63;;;11.70;99.90;;;;;;5072361;28;20223;-63
2021/08/25 03:10:16;;;;;;;6.90;6.30;;;11.70;99.90;;;;;;5073132;28;20642;-63
2021/08/25 03:12:42;;;;;;;7.90;7.10;;;11.70;99.90;;;;;;5073133;28;20623;-63
2021/08/25 03:15:09;;;;;;;10.83;6.23;;;11.70;99.90;;;;;;5073266;28;20181;-61
2021/08/25 03:17:35;;;;;;;7.05;6.35;;;11.60;99.90;;;;;;5072820;28;20173;-62
2021/08/25 03:20:00;;;;;;;5.35;4.82;;;11.60;99.90;;;;;;5072933;28;20188;-63
2021/08/25 03:22:28;;;;;;;8.43;6.70;;;11.60;99.90;;;;;;5061353;28;20315;-63
2021/08/25 03:24:54;;;;;;;7.53;6.75;;;11.50;99.90;;;;;;5056979;28;20194;-63
2021/08/25 03:27:20;;;;;;;6.90;6.18;;;11.60;99.90;;;;;;5056713;28;20166;-63
2021/08/25 03:29:45;;;;;;;8.07;7.13;;;11.60;99.90;;;;;;5056771;28;20267;-63
2021/08/25 03:32:11;;;;;;;8.87;6.97;;;11.60;99.90;;;;;;5056766;28;20196;-65
2021/08/25 03:34:37;;;;;;;7.70;6.90;;;11.60;99.90;;;;;;5076390;28;20260;-63
2021/08/25 03:37:03;;;;;;;8.93;6.23;;;11.60;99.90;;;;;;5060882;28;20193;-62
2021/08/25 03:39:30;;;;;;;7.17;6.47;;;11.50;99.90;;;;;;5072107;28;20455;-63
2021/08/25 03:41:55;;;;;;;6.88;5.00;;;11.50;99.90;;;;;;5056840;28;20474;-62
2021/08/25 03:44:21;;;;;;;8.97;6.37;;;11.50;99.90;;;;;;5056680;28;20567;-63
2021/08/25 03:46:46;;;;;;;6.67;6.00;;;11.50;99.90;;;;;;5055110;28;20219;-62
2021/08/25 03:49:12;;;;;;;8.37;7.33;;;11.50;99.90;;;;;;5056489;28;20193;-63
2021/08/25 03:51:38;;;;;;;7.67;6.23;;;11.60;99.90;;;;;;5056818;28;20173;-63
2021/08/25 03:54:03;;;;;;;7.67;6.13;;;11.60;99.90;;;;;;5056737;28;20549;-64
2021/08/25 03:56:29;;;;;;;6.93;6.23;;;11.50;99.90;;;;;;5056495;28;20209;-67
2021/08/25 03:58:54;;;;;;;9.53;6.20;;;11.50;99.90;;;;;;5056256;28;20204;-62
2021/08/25 04:01:20;;;;;;;8.13;6.47;;;11.50;99.90;;;;;;5056531;28;20181;-63
2021/08/25 04:03:46;;;;;;;11.40;7.23;;;11.50;99.90;;;;;;5058658;28;20657;-63
2021/08/25 04:06:12;;;;;;;9.43;7.40;;;11.50;99.90;;;;;;5067224;28;20255;-65
2021/08/25 04:08:37;;;;;;;8.47;6.20;;;11.50;99.90;;;;;;5075743;28;20975;-64
2021/08/25 04:11:03;;;;;;;7.77;6.23;;;11.40;99.90;;;;;;5074988;28;20588;-63
2021/08/25 04:13:29;;;;;;;9.37;6.33;;;11.40;99.90;;;;;;5074905;28;20174;-63
2021/08/25 04:15:54;;;;;;;8.27;6.90;;;11.40;99.90;;;;;;5076388;28;20173;-64
2021/08/25 04:18:20;;;;;;;10.83;7.50;;;11.40;99.90;;;;;;5075487;28;20192;-64
2021/08/25 04:20:46;;;;;;;10.10;7.10;;;11.40;99.90;;;;;;5074292;28;20176;-64
2021/08/25 04:23:11;;;;;;;7.80;6.50;;;11.40;99.90;;;;;;5075853;28;20615;-61
2021/08/25 04:25:37;;;;;;;8.63;5.57;;;11.40;99.90;;;;;;5075855;28;20299;-63
2021/08/25 04:28:03;;;;;;;9.90;7.07;;;11.30;99.90;;;;;;5075458;28;20229;-63
2021/08/25 04:30:29;;;;;;;9.45;6.93;;;11.40;99.90;;;;;;5075900;28;20169;-63
2021/08/25 04:32:54;;;;;;;9.10;7.90;;;11.40;99.90;;;;;;5064750;28;20174;-61
2021/08/25 04:35:20;;;;;;;9.50;7.50;;;11.40;99.90;;;;;;5063453;28;20173;-64
2021/08/25 04:37:46;;;;;;;9.77;7.30;;;11.40;99.90;;;;;;5075501;28;20227;-63
2021/08/25 04:40:11;;;;;;;8.97;7.43;;;11.40;99.90;;;;;;5075929;28;20184;-63
2021/08/25 04:42:37;;;;;;;8.60;7.13;;;11.40;99.90;;;;;;5074354;28;20631;-63
2021/08/25 04:45:03;;;;;;;9.50;7.67;;;11.40;99.90;;;;;;5075694;28;20200;-62
2021/08/25 04:47:29;;;;;;;9.30;6.70;;;11.40;99.90;;;;;;5073848;28;20601;-63
2021/08/25 04:49:54;;;;;;;11.07;7.57;;;11.40;99.90;;;;;;5068653;28;20219;-63
2021/08/25 04:52:20;;;;;;;10.53;7.00;;;11.40;99.90;;;;;;5055430;28;20539;-63
2021/08/25 04:54:46;;;;;;;7.90;7.10;;;11.40;99.90;;;;;;5067369;28;20174;-64
2021/08/25 04:57:11;;;;;;;9.53;7.87;;;11.40;99.90;;;;;;5074965;28;20180;-62
2021/08/25 04:59:37;;;;;;;11.83;8.37;;;11.50;99.90;;;;;;5075303;28;20193;-62
2021/08/25 05:02:04;;;;;;;11.13;8.33;;;11.60;99.90;;;;;;5075421;28;20180;-64
2021/08/25 05:04:29;;;;;;;10.85;7.60;;;11.70;99.90;;;;;;5069804;28;20200;-63
2021/08/25 05:06:55;;;;;;;12.93;9.03;;;11.90;99.90;;;;;;5054615;28;20166;-63
2021/08/25 05:09:21;;;;;;;9.17;8.27;;;12.00;99.90;;;;;;5054929;28;20583;-63
2021/08/25 05:11:46;;;;;;;10.87;7.93;;;12.10;99.90;;;;;;5054874;28;20200;-63
2021/08/25 05:14:12;;;;;;;11.97;9.20;;;12.20;99.90;;;;;;5054926;28;20182;-63
2021/08/25 05:16:38;;;;;;;10.00;8.10;;;12.30;99.90;;;;;;5054542;28;20198;-64
2021/08/25 05:19:03;;;;;;;14.27;8.83;;;12.40;99.90;;;;;;5054590;28;20941;-63
2021/08/25 05:21:29;;;;;;;10.37;7.60;;;12.50;99.90;;;;;;5054897;28;20249;-63
2021/08/25 05:23:55;;;;;;;9.10;7.50;;;12.70;99.90;;;;;;5058449;28;20205;-63
2021/08/25 05:26:20;;;;;;;10.57;8.30;;;12.80;99.90;;;;;;5074851;28;20173;-63
2021/08/25 05:28:46;;;;;;;11.10;8.37;;;12.90;99.90;;;;;;5074274;28;20551;-63
2021/08/25 05:31:12;;;;;;;9.57;7.90;;;13.00;99.90;;;;;;5072745;28;20187;-63
2021/08/25 05:33:38;;;;;;;9.90;7.60;;;13.10;99.90;;;;;;5073665;28;20702;-63
2021/08/25 05:36:03;;;;;;;12.13;7.87;;;13.20;99.90;;;;;;5074727;28;20199;-64
2021/08/25 05:38:29;;;;;;;10.10;8.83;;;13.20;99.90;;;;;;5072803;28;20200;-63
2021/08/25 05:40:55;;;;;;;10.77;9.47;;;13.30;99.90;;;;;;5073182;28;20184;-63
2021/08/25 05:43:20;;;;;;;11.87;7.43;;;13.40;99.90;;;;;;5072021;28;20201;-62
2021/08/25 05:45:46;;;;;;;11.40;9.17;;;13.50;99.90;;;;;;5074204;28;20198;-62
2021/08/25 05:48:12;;;;;;;10.07;7.63;;;13.60;99.90;;;;;;5071696;28;20194;-62
2021/08/25 05:50:37;;;;;;;8.80;7.90;;;13.70;99.90;;;;;;5052924;28;20271;-61
2021/08/25 05:53:03;;;;;;;11.23;7.37;;;13.80;99.90;;;;;;5054081;28;20183;-63
2021/08/25 05:55:29;;;;;;;10.03;7.67;;;13.90;99.90;;;;;;5053945;28;20707;-63
2021/08/25 05:57:55;;;;;;;10.70;7.33;;;14.00;99.90;;;;;;5053584;28;20423;-63
2021/08/25 06:00:21;;;;;;;9.07;7.63;;;14.20;99.90;;;;;;5054224;28;20180;-63
2021/08/25 06:02:46;;;;;;;9.93;7.47;;;14.40;99.90;;;;;;5054001;28;20752;-63
2021/08/25 06:05:14;;;;;;;9.23;8.33;;;14.70;99.90;;;;;;5053874;28;20462;-63
2021/08/25 06:07:40;;;;;;;8.27;7.30;;;14.90;99.90;;;;;;5053640;28;20535;-62
2021/08/25 06:10:07;;;;;;;7.30;6.57;;;15.00;99.90;;;;;;5054055;28;20435;-64
2021/08/25 06:12:33;;;;;;;8.60;7.80;;;15.10;99.90;;;;;;5053974;28;20416;-63
2021/08/25 06:15:00;;;;;;;7.77;6.80;;;15.20;99.90;;;;;;5073548;28;20749;-64
2021/08/25 06:17:25;;;;;;;13.37;6.07;;;15.30;99.90;;;;;;5061160;28;20502;-63
2021/08/25 06:19:52;;;;;;;7.30;6.50;;;15.30;99.90;;;;;;5061627;28;20451;-63
2021/08/25 06:22:18;;;;;;;6.60;5.60;;;15.30;99.90;;;;;;5063603;28;20176;-62
2021/08/25 06:24:44;;;;;;;7.13;5.83;;;15.40;99.90;;;;;;5069683;28;20454;-63
2021/08/25 06:27:09;;;;;;;6.33;5.67;;;15.50;99.90;;;;;;5073166;28;20386;-63
2021/08/25 06:29:35;;;;;;;6.47;5.87;;;15.60;99.90;;;;;;5073573;28;20402;-63
2021/08/25 06:32:02;;;;;;;6.90;6.27;;;15.80;99.90;;;;;;5072057;28;20180;-62
2021/08/25 06:34:27;;;;;;;5.90;5.30;;;15.90;99.90;;;;;;5073097;28;20179;-62
2021/08/25 06:36:53;;;;;;;5.93;5.17;;;15.90;99.90;;;;;;5072589;28;20394;-62
2021/08/25 06:39:19;;;;;;;6.90;5.60;;;15.80;99.90;;;;;;5073266;28;20185;-63
2021/08/25 06:41:44;;;;;;;9.60;5.20;;;15.70;99.90;;;;;;5073524;28;20244;-63
2021/08/25 06:44:10;;;;;;;5.50;4.73;;;15.70;99.90;;;;;;5072673;28;20197;-62
2021/08/25 06:46:35;;;;;;;7.13;6.47;;;15.70;99.90;;;;;;5056036;28;20170;-62
2021/08/25 06:49:01;;;;;;;4.87;4.47;;;15.70;99.90;;;;;;5072999;28;20647;-63
2021/08/25 06:51:28;;;;;;;5.70;4.70;;;15.70;99.90;;;;;;5072973;28;20172;-63
2021/08/25 06:53:54;;;;;;;6.20;5.60;;;15.70;99.90;;;;;;5073119;28;20172;-63
2021/08/25 06:56:21;;;;;;;5.87;5.13;;;15.70;99.90;;;;;;5072369;28;20399;-63
2021/08/25 06:58:46;;;;;;;5.57;4.87;;;15.80;99.90;;;;;;5072855;28;20212;-63
2021/08/25 07:01:12;;;;;;;5.73;5.30;;;16.00;99.90;;;;;;5073001;28;20386;-63
2021/08/25 07:03:37;;;;;;;4.63;4.23;;;16.20;99.90;;;;;;5072906;28;20169;-62
2021/08/25 07:06:03;;;;;;;4.43;4.03;;;16.30;99.90;;;;;;5070363;28;20190;-62
2021/08/25 07:08:29;;;;;;;5.00;4.50;;;16.50;99.90;;;;;;5052797;28;20694;-63
2021/08/25 07:10:54;;;;;;;5.30;4.80;;;16.70;99.90;;;;;;5052850;28;20178;-63
2021/08/25 07:13:20;;;;;;;5.67;5.10;;;16.90;99.90;;;;;;5052825;28;20311;-63
2021/08/25 07:15:46;;;;;;;5.07;4.57;;;17.00;99.90;;;;;;5053051;28;20207;-64
2021/08/25 07:18:11;;;;;;;9.53;5.33;;;17.20;99.90;;;;;;5052223;28;20194;-65
2021/08/25 07:20:37;;;;;;;4.83;4.33;;;17.30;99.90;;;;;;5052824;28;20185;-64
2021/08/25 07:23:03;;;;;;;5.50;5.10;;;17.40;99.90;;;;;;5052909;28;20175;-63
2021/08/25 07:25:28;;;;;;;5.40;4.90;;;17.30;99.90;;;;;;5052772;28;20207;-64
2021/08/25 07:27:54;;;;;;;5.10;4.10;;;17.40;99.90;;;;;;5052261;28;20217;-63
2021/08/25 07:30:20;;;;;;;6.13;4.57;;;17.50;99.90;;;;;;5052928;28;20176;-64
2021/08/25 07:32:45;;;;;;;4.30;3.97;;;17.70;99.90;;;;;;5052489;28;20192;-63
2021/08/25 07:35:12;;;;;;;4.83;4.30;;;18.00;99.90;;;;;;5052740;28;20192;-63
2021/08/25 07:37:38;;;;;;;3.70;3.43;;;18.30;99.90;;;;;;5058126;28;20181;-64
2021/08/25 07:40:06;;;;;;;3.47;3.10;;;18.60;99.90;;;;;;5052668;28;20464;-63
2021/08/25 07:42:32;;;;;;;3.67;3.37;;;19.00;99.90;;;;;;5052747;28;20390;-63
2021/08/25 07:44:58;;;;;;;3.40;3.10;;;19.50;99.90;;;;;;5051444;28;20476;-64
2021/08/25 07:47:23;;;;;;;7.07;2.87;;;20.10;99.90;;;;;;5052315;28;20182;-64
2021/08/25 07:49:49;;;;;;;3.60;3.23;;;20.70;99.90;;;;;;5052641;28;20200;-63
2021/08/25 07:52:15;;;;;;;4.30;3.90;;;21.20;99.90;;;;;;5068856;28;20252;-63
2021/08/25 07:54:41;;;;;;;4.23;3.53;;;21.70;99.90;;;;;;5072757;28;20572;-63
2021/08/25 07:57:09;;;;;;;4.00;3.70;;;22.40;99.90;;;;;;5072285;28;20188;-63
2021/08/25 07:59:35;;;;;;;3.83;3.37;;;23.30;99.50;;;;;;5072643;28;20187;-62
2021/08/25 08:02:01;;;;;;;3.57;3.27;;;24.30;97.60;;;;;;5072959;28;20809;-63
2021/08/25 08:04:27;;;;;;;4.10;3.80;;;25.30;96.10;;;;;;5072349;28;20470;-65
2021/08/25 08:06:53;;;;;;;3.80;3.50;;;26.20;94.00;;;;;;5055841;28;20188;-65
2021/08/25 08:09:19;;;;;;;3.90;3.60;;;26.90;93.20;;;;;;5054859;28;20190;-65
2021/08/25 08:11:46;;;;;;;4.20;3.80;;;27.70;91.90;;;;;;5056191;28;20390;-67
2021/08/25 08:14:11;;;;;;;4.07;3.70;;;28.40;90.70;;;;;;5055997;28;20469;-63
2021/08/25 08:16:39;;;;;;;3.83;3.53;;;29.20;87.60;;;;;;5055835;28;20759;-63
2021/08/25 08:19:17;;;;;;;3.60;3.40;;;29.90;83.80;;;;;;5055950;28;20201;-63
2021/08/25 08:21:43;;;;;;;4.40;4.00;;;30.50;80.90;;;;;;5073558;28;20423;-64
2021/08/25 08:24:09;;;;;;;3.97;3.63;;;30.70;78.30;;;;;;5075734;28;20516;-62
2021/08/25 08:26:34;;;;;;;4.23;3.93;;;30.90;77.90;;;;;;5074365;28;20176;-63
2021/08/25 08:29:00;;;;;;;4.30;3.90;;;31.30;74.00;;;;;;5075901;28;20193;-63
2021/08/25 08:31:31;;;;;;;4.23;3.90;;;31.20;73.20;;;;;;5075708;28;20213;-64
2021/08/25 08:33:56;;;;;;;3.90;3.60;;;31.40;73.10;;;;;;5075677;28;20185;-64
2021/08/25 08:36:22;;;;;;;4.83;4.43;;;31.50;73.30;;;;;;5058581;28;20424;-63
2021/08/25 08:38:48;;;;;;;4.60;4.20;;;31.50;71.30;;;;;;5055109;28;20221;-63
2021/08/25 08:41:13;;;;;;;4.80;4.33;;;31.40;69.90;;;;;;5055581;28;20180;-63
2021/08/25 08:43:45;;;;;;;6.20;5.57;;;31.40;70.90;;;;;;5055494;28;20174;-63
2021/08/25 08:46:14;;;;;;;4.63;3.80;;;31.50;69.70;;;;;;5055435;28;20522;-63
2021/08/25 08:48:41;;;;;;;3.70;3.50;;;31.30;70.30;;;;;;5054987;28;20432;-64
2021/08/25 08:51:09;;;;;;;4.30;4.00;;;31.60;70.60;;;;;;5072102;28;20430;-63
2021/08/25 08:53:35;;;;;;;4.30;4.00;;;31.60;68.50;;;;;;5075340;28;20864;-64
2021/08/25 08:56:01;;;;;;;3.40;3.20;;;31.70;69.70;;;;;;5075463;28;20415;-63
2021/08/25 08:58:26;;;;;;;3.87;3.57;;;32.20;69.40;;;;;;5074157;28;20219;-63
2021/08/25 09:00:52;;;;;;;4.20;3.90;;;32.70;67.10;;;;;;5075369;28;20572;-63
2021/08/25 09:03:28;;;;;;;4.10;3.80;;;33.30;65.60;;;;;;5074021;28;20173;-63
2021/08/25 09:06:01;;;;;;;3.70;3.50;;;33.60;62.70;;;;;;5073340;28;20214;-64
2021/08/25 09:08:30;;;;;;;4.07;3.77;;;33.60;63.30;;;;;;5074547;28;20491;-64
2021/08/25 09:11:25;;;;;;;3.47;3.27;;;33.50;61.30;;;;;;5074978;28;20403;-63
2021/08/25 09:13:51;;;;;;;3.53;3.23;;;33.00;61.30;;;;;;5066063;28;20442;-62
2021/08/25 09:16:26;;;;;;;3.83;3.53;;;32.90;61.20;;;;;;5074781;28;20864;-65
2021/08/25 09:19:04;;;;;;;3.60;3.30;;;33.20;62.10;;;;;;5070927;28;20831;-63
2021/08/25 09:21:39;;;;;;;2.87;2.67;;;33.10;60.10;;;;;;5054648;28;20412;-66
2021/08/25 09:24:06;;;;;;;3.20;3.00;;;33.00;60.00;;;;;;5054645;28;20447;-64
2021/08/25 09:26:37;;;;;;;3.50;3.23;;;33.40;59.30;;;;;;5054385;28;20416;-64
2021/08/25 09:29:19;;;;;;;3.13;2.90;;;34.00;58.50;;;;;;5054384;28;20597;-64
2021/08/25 09:31:48;;;;;;;3.07;2.87;;;34.20;55.90;;;;;;5054553;28;20431;-65
2021/08/25 09:34:25;;;;;;;4.10;3.70;;;33.80;55.00;;;;;;5054402;28;20433;-64
2021/08/25 09:37:07;;;;;;;3.60;3.30;;;33.30;54.30;;;;;;5054293;28;20486;-62
2021/08/25 09:39:33;;;;;;;3.00;2.80;;;32.80;55.30;;;;;;5054250;28;20790;-63
2021/08/25 09:41:59;;;;;;;3.40;3.10;;;32.50;54.50;;;;;;5054254;28;20400;-62
2021/08/25 09:44:25;;;;;;;2.80;2.60;;;32.20;54.90;;;;;;5054375;28;20179;-64
2021/08/25 09:46:51;;;;;;;3.27;3.07;;;32.00;55.90;;;;;;5053890;28;20382;-62
2021/08/25 09:49:17;;;;;;;2.77;2.57;;;31.80;55.40;;;;;;5063770;28;20678;-62
2021/08/25 09:51:43;;;;;;;3.47;2.90;;;31.50;56.80;;;;;;5072892;28;20513;-62
2021/08/25 09:54:15;;;;;;;2.60;2.40;;;31.30;56.50;;;;;;5055695;28;20194;-63
2021/08/25 09:56:43;;;;;;;2.80;2.60;;;31.30;56.90;;;;;;5053832;28;20165;-63
2021/08/25 09:59:13;;;;;;;3.00;2.80;;;31.50;56.60;;;;;;5052723;28;20411;-63
2021/08/25 10:01:40;;;;;;;3.20;2.90;;;31.40;56.60;;;;;;5054137;28;20424;-63
2021/08/25 10:04:08;;;;;;;3.20;2.90;;;31.50;57.10;;;;;;5064222;28;20405;-62
2021/08/25 10:06:37;;;;;;;2.93;2.67;;;31.60;56.60;;;;;;5072520;28;20549;-63
2021/08/25 10:09:05;;;;;;;2.87;2.67;;;31.90;56.70;;;;;;5073714;28;20427;-62
2021/08/25 10:11:32;;;;;;;3.37;2.83;;;31.80;54.50;;;;;;5068680;28;20953;-62
2021/08/25 10:13:59;;;;;;;2.87;2.67;;;31.50;54.90;;;;;;5053550;28;20404;-63
2021/08/25 10:16:44;;;;;;;2.80;2.60;;;31.10;55.80;;;;;;5053874;28;20375;-63
2021/08/25 10:19:26;;;;;;;3.50;3.00;;;30.80;56.00;;;;;;5052275;28;20794;-63
2021/08/25 10:22:00;;;;;;;3.33;3.03;;;30.40;55.80;;;;;;5060514;28;20793;-62
2021/08/25 10:24:26;;;;;;;2.67;2.47;;;30.30;56.70;;;;;;5073704;28;20456;-63
2021/08/25 10:26:58;;;;;;;4.60;2.67;;;30.20;56.80;;;;;;5073404;28;20389;-62
2021/08/25 10:29:28;;;;;;;2.70;2.50;;;30.20;56.20;;;;;;5073280;28;20445;-63
2021/08/25 10:31:56;;;;;;;3.63;3.33;;;29.70;56.40;;;;;;5072789;28;20423;-62
2021/08/25 10:34:30;;;;;;;3.10;2.60;;;28.70;56.80;;;;;;5070903;28;20449;-62
2021/08/25 10:37:11;;;;;;;2.00;1.90;;;27.50;58.60;;;;;;5052874;28;20389;-63
2021/08/25 10:39:37;;;;;;;3.03;2.83;;;26.10;60.80;;;;;;5053184;28;20485;-63
2021/08/25 10:42:05;;;;;;;2.80;2.40;;;25.20;63.50;;;;;;5053287;28;20776;-63
2021/08/25 10:44:49;;;;;;;3.00;2.80;;;24.70;65.90;;;;;;5053242;28;20421;-64
2021/08/25 10:47:16;;;;;;;3.53;2.80;;;24.50;67.70;;;;;;5052810;28;20388;-64
2021/08/25 10:49:44;;;;;;;2.80;2.57;;;24.40;68.60;;;;;;5059620;28;20451;-63
2021/08/25 10:52:19;;;;;;;2.90;2.70;;;24.20;70.40;;;;;;5073141;28;20445;-62
2021/08/25 10:54:49;;;;;;;2.47;2.30;;;24.70;70.20;;;;;;5072966;28;20431;-63
2021/08/25 10:57:19;;;;;;;3.10;2.90;;;25.20;70.10;;;;;;5062454;28;20396;-61
2021/08/25 10:59:46;;;;;;;4.47;3.43;;;25.40;70.00;;;;;;5053197;28;20430;-64
2021/08/25 11:02:12;;;;;;;3.60;3.03;;;25.20;69.40;;;;;;5053188;28;20375;-62
2021/08/25 11:04:38;;;;;;;2.63;2.13;;;25.00;71.30;;;;;;5053223;28;20949;-63
2021/08/25 11:07:06;;;;;;;4.13;3.10;;;25.10;70.40;;;;;;5053195;28;20591;-64
2021/08/25 11:09:46;;;;;;;3.97;3.07;;;25.10;67.00;;;;;;5052928;28;20407;-64
2021/08/25 11:12:16;;;;;;;2.63;2.43;;;25.10;67.50;;;;;;5052863;28;20752;-63
2021/08/25 11:14:52;;;;;;;4.20;3.80;;;24.70;67.50;;;;;;5053061;28;20695;-63
2021/08/25 11:17:21;;;;;;;2.47;2.27;;;24.20;67.80;;;;;;5052357;28;20778;-62
2021/08/25 11:19:49;;;;;;;3.20;2.90;;;23.90;69.70;;;;;;5052558;28;20420;-63
2021/08/25 11:22:17;;;;;;;6.00;2.77;;;23.60;70.00;;;;;;5052984;28;20407;-62
2021/08/25 11:24:46;;;;;;;2.57;2.37;;;23.20;70.20;;;;;;5052877;28;20412;-63
2021/08/25 11:27:20;;;;;;;3.10;2.80;;;23.00;69.80;;;;;;5065978;28;20430;-64
2021/08/25 11:30:04;;;;;;;2.20;2.07;;;22.70;72.10;;;;;;5072597;28;20425;-63
2021/08/25 11:32:30;;;;;;;3.10;2.80;;;22.50;73.20;;;;;;5072612;28;20424;-62
2021/08/25 11:34:56;;;;;;;2.73;2.00;;;22.40;75.10;;;;;;5072636;28;20431;-64
2021/08/25 11:37:23;;;;;;;2.30;2.10;;;22.30;74.40;;;;;;5072243;28;20407;-64
2021/08/25 11:39:57;;;;;;;2.93;2.30;;;22.20;72.50;;;;;;5072788;28;20501;-63
2021/08/25 11:42:30;;;;;;;2.97;2.60;;;22.10;73.50;;;;;;5067721;28;20418;-63
2021/08/25 11:44:56;;;;;;;3.97;2.57;;;22.00;72.60;;;;;;5076308;28;20407;-65
2021/08/25 11:47:21;;;;;;;7.73;3.97;;;21.90;73.40;;;;;;5076293;28;20758;-63
2021/08/25 11:49:51;;;;;;;4.97;3.50;;;21.90;76.10;;;;;;5076452;28;20401;-62
2021/08/25 11:52:18;;;;;;;2.90;2.70;;;22.00;73.50;;;;;;5074829;28;20169;-63
2021/08/25 11:54:44;;;;;;;3.83;2.47;;;22.00;72.00;;;;;;5056247;28;20418;-64
2021/08/25 11:57:15;;;;;;;2.60;2.37;;;22.00;73.10;;;;;;5054666;28;20423;-63
2021/08/25 11:59:59;;;;;;;2.80;1.80;;;22.00;73.90;;;;;;5056187;28;20415;-63
2021/08/25 12:02:25;;;;;;;2.47;2.27;;;22.00;74.50;;;;;;5056297;28;20396;-62
2021/08/25 12:04:51;;;;;;;6.43;2.10;;;22.10;74.80;;;;;;5056233;28;20411;-62
2021/08/25 12:07:18;;;;;;;2.57;2.30;;;22.10;75.10;;;;;;5057302;28;20410;-62
2021/08/25 12:09:43;;;;;;;3.50;2.10;;;22.10;73.70;;;;;;5075993;28;20238;-62
2021/08/25 12:12:09;;;;;;;2.67;2.47;;;22.20;75.80;;;;;;5075861;28;20402;-62
2021/08/25 12:14:51;;;;;;;3.33;2.47;;;22.20;73.80;;;;;;5075914;28;20499;-63
2021/08/25 12:17:17;;;;;;;3.47;2.30;;;22.20;73.50;;;;;;5075767;28;20539;-62
2021/08/25 12:20:00;;;;;;;3.80;2.60;;;22.20;75.30;;;;;;5075883;28;20476;-62
2021/08/25 12:22:29;;;;;;;3.40;3.20;;;22.20;76.70;;;;;;5068987;28;20473;-61
2021/08/25 12:24:56;;;;;;;4.10;2.97;;;22.10;77.40;;;;;;5055860;28;20411;-62
2021/08/25 12:27:22;;;;;;;3.20;3.00;;;22.00;78.30;;;;;;5055378;28;20419;-63
2021/08/25 12:29:49;;;;;;;3.00;2.70;;;21.80;77.80;;;;;;5055658;28;20424;-63
2021/08/25 12:32:15;;;;;;;6.67;2.70;;;21.80;79.90;;;;;;5055592;28;20399;-63
2021/08/25 12:35:00;;;;;;;3.73;2.80;;;21.90;79.40;;;;;;5055853;28;20460;-64
2021/08/25 12:37:52;;;;;;;2.30;1.97;;;22.10;78.40;;;;;;5063588;28;20419;-63
2021/08/25 12:40:20;;;;;;;3.97;3.03;;;22.20;79.00;;;;;;5075698;28;20395;-63
2021/08/25 12:42:47;;;;;;;3.70;3.07;;;22.20;78.20;;;;;;5075447;28;20435;-62
2021/08/25 12:45:13;;;;;;;2.40;2.20;;;22.10;78.40;;;;;;5075296;28;20407;-62
2021/08/25 12:47:39;;;;;;;3.53;3.10;;;22.10;77.30;;;;;;5075128;28;20488;-63